Line Mountain, Pennsylvania
Current Conditions -  °F | °C
As of 10:12 AM on Wednesday 26 Nov 2014 (Local Time) from KSEG Reporting Station
Light Snow Light Snow  
Wind Chill: 28°   Ceiling: 500
Heat Index: 33°   Visibility: 1mi
Dew Point: 32°   Wind: 6mph
Humidity: 96%   Direction: 330°NNW
Pressure: 30.14"   Gusts: NA
Location:  40.6691°N, 76.6267°W
Report Text: KSEG 261512Z AUTO 33005KT 1SM -SN BR OVC005 01/00 A3014 RMK AO2 P0002 T00060000
Loading
Personal Weather Stations






























Interactive Weather Map New forecast layout! Learn more

10-Day Weather Forecast

Advertisements
Track Severe Weather on mobile